sensor_id;sensor_type;location;lat;lon;timestamp;P1;durP1;ratioP1;P2;durP2;ratioP2
8474;SDS011;4274;52.012;8.448;2023-07-20T00:00:35;47.70;;;5.57;;
8474;SDS011;4274;52.012;8.448;2023-07-20T00:03:10;47.83;;;6.23;;
8474;SDS011;4274;52.012;8.448;2023-07-20T00:05:44;48.83;;;6.60;;
8474;SDS011;4274;52.012;8.448;2023-07-20T00:08:10;47.53;;;6.30;;
8474;SDS011;4274;52.012;8.448;2023-07-20T00:10:35;54.00;;;7.17;;
8474;SDS011;4274;52.012;8.448;2023-07-20T00:13:01;54.07;;;7.97;;
8474;SDS011;4274;52.012;8.448;2023-07-20T00:15:27;50.23;;;7.10;;
8474;SDS011;4274;52.012;8.448;2023-07-20T00:17:53;47.40;;;6.73;;
8474;SDS011;4274;52.012;8.448;2023-07-20T00:20:18;49.73;;;6.60;;
8474;SDS011;4274;52.012;8.448;2023-07-20T00:22:44;48.47;;;6.87;;
8474;SDS011;4274;52.012;8.448;2023-07-20T00:25:10;48.10;;;6.67;;
8474;SDS011;4274;52.012;8.448;2023-07-20T00:27:36;50.93;;;7.90;;
8474;SDS011;4274;52.012;8.448;2023-07-20T00:30:03;47.40;;;6.40;;
8474;SDS011;4274;52.012;8.448;2023-07-20T00:32:29;49.47;;;7.37;;
8474;SDS011;4274;52.012;8.448;2023-07-20T00:34:54;58.20;;;8.33;;
8474;SDS011;4274;52.012;8.448;2023-07-20T00:37:20;53.43;;;9.43;;
8474;SDS011;4274;52.012;8.448;2023-07-20T00:39:46;56.20;;;10.17;;
8474;SDS011;4274;52.012;8.448;2023-07-20T00:42:11;52.00;;;9.40;;
8474;SDS011;4274;52.012;8.448;2023-07-20T00:44:37;52.00;;;9.10;;
8474;SDS011;4274;52.012;8.448;2023-07-20T00:47:02;55.27;;;9.47;;
8474;SDS011;4274;52.012;8.448;2023-07-20T00:49:29;59.60;;;10.67;;
8474;SDS011;4274;52.012;8.448;2023-07-20T00:51:54;52.37;;;10.13;;
8474;SDS011;4274;52.012;8.448;2023-07-20T00:54:20;54.53;;;10.83;;
8474;SDS011;4274;52.012;8.448;2023-07-20T00:56:46;53.00;;;10.37;;
8474;SDS011;4274;52.012;8.448;2023-07-20T00:59:12;56.07;;;10.50;;
8474;SDS011;4274;52.012;8.448;2023-07-20T01:01:38;63.53;;;12.80;;
8474;SDS011;4274;52.012;8.448;2023-07-20T01:04:04;64.97;;;12.80;;
8474;SDS011;4274;52.012;8.448;2023-07-20T01:06:39;64.97;;;12.20;;
8474;SDS011;4274;52.012;8.448;2023-07-20T01:09:13;56.47;;;12.33;;
8474;SDS011;4274;52.012;8.448;2023-07-20T01:12:09;62.67;;;14.23;;
8474;SDS011;4274;52.012;8.448;2023-07-20T01:14:40;76.27;;;15.27;;
8474;SDS011;4274;52.012;8.448;2023-07-20T01:17:06;63.00;;;13.27;;
8474;SDS011;4274;52.012;8.448;2023-07-20T01:19:32;58.07;;;14.13;;
8474;SDS011;4274;52.012;8.448;2023-07-20T01:33:17;57.20;;;12.80;;
8474;SDS011;4274;52.012;8.448;2023-07-20T01:35:46;57.27;;;11.87;;
8474;SDS011;4274;52.012;8.448;2023-07-20T01:38:24;63.43;;;13.07;;
8474;SDS011;4274;52.012;8.448;2023-07-20T01:40:50;63.53;;;13.10;;
8474;SDS011;4274;52.012;8.448;2023-07-20T01:43:16;61.37;;;12.73;;
8474;SDS011;4274;52.012;8.448;2023-07-20T01:45:43;59.40;;;14.60;;
8474;SDS011;4274;52.012;8.448;2023-07-20T01:48:08;60.67;;;14.03;;
8474;SDS011;4274;52.012;8.448;2023-07-20T01:50:34;61.77;;;14.40;;
8474;SDS011;4274;52.012;8.448;2023-07-20T01:53:00;62.57;;;14.47;;
8474;SDS011;4274;52.012;8.448;2023-07-20T01:55:26;60.13;;;13.90;;
8474;SDS011;4274;52.012;8.448;2023-07-20T01:57:52;56.93;;;13.70;;
8474;SDS011;4274;52.012;8.448;2023-07-20T02:06:06;67.07;;;16.50;;
8474;SDS011;4274;52.012;8.448;2023-07-20T02:08:31;62.83;;;15.23;;
8474;SDS011;4274;52.012;8.448;2023-07-20T02:10:57;60.10;;;15.17;;
8474;SDS011;4274;52.012;8.448;2023-07-20T02:13:22;102.57;;;18.70;;
8474;SDS011;4274;52.012;8.448;2023-07-20T02:15:48;63.73;;;16.30;;
8474;SDS011;4274;52.012;8.448;2023-07-20T02:18:14;72.23;;;17.43;;
8474;SDS011;4274;52.012;8.448;2023-07-20T02:20:40;62.83;;;16.07;;
8474;SDS011;4274;52.012;8.448;2023-07-20T02:23:07;68.07;;;17.63;;
8474;SDS011;4274;52.012;8.448;2023-07-20T02:25:32;61.10;;;14.80;;
8474;SDS011;4274;52.012;8.448;2023-07-20T02:27:58;76.43;;;17.90;;
8474;SDS011;4274;52.012;8.448;2023-07-20T02:30:23;63.90;;;17.13;;
8474;SDS011;4274;52.012;8.448;2023-07-20T02:32:49;65.43;;;16.57;;
8474;SDS011;4274;52.012;8.448;2023-07-20T02:35:15;63.27;;;17.07;;
8474;SDS011;4274;52.012;8.448;2023-07-20T02:37:41;65.23;;;14.77;;
8474;SDS011;4274;52.012;8.448;2023-07-20T02:40:07;62.40;;;16.77;;
8474;SDS011;4274;52.012;8.448;2023-07-20T02:42:34;67.53;;;16.43;;
8474;SDS011;4274;52.012;8.448;2023-07-20T02:44:59;65.40;;;16.20;;
8474;SDS011;4274;52.012;8.448;2023-07-20T02:47:26;69.00;;;16.33;;
8474;SDS011;4274;52.012;8.448;2023-07-20T02:49:51;65.93;;;16.57;;
8474;SDS011;4274;52.012;8.448;2023-07-20T02:52:17;60.83;;;15.80;;
8474;SDS011;4274;52.012;8.448;2023-07-20T02:54:42;64.80;;;16.60;;
8474;SDS011;4274;52.012;8.448;2023-07-20T02:57:08;61.93;;;14.93;;
8474;SDS011;4274;52.012;8.448;2023-07-20T02:59:34;59.03;;;16.50;;
8474;SDS011;4274;52.012;8.448;2023-07-20T03:01:59;60.67;;;16.17;;
8474;SDS011;4274;52.012;8.448;2023-07-20T03:04:28;63.37;;;15.73;;
8474;SDS011;4274;52.012;8.448;2023-07-20T03:06:53;65.47;;;16.10;;
8474;SDS011;4274;52.012;8.448;2023-07-20T03:09:19;76.47;;;16.97;;
8474;SDS011;4274;52.012;8.448;2023-07-20T03:11:44;60.90;;;15.90;;
8474;SDS011;4274;52.012;8.448;2023-07-20T03:14:10;58.23;;;16.00;;
8474;SDS011;4274;52.012;8.448;2023-07-20T03:16:36;67.33;;;17.30;;
8474;SDS011;4274;52.012;8.448;2023-07-20T03:19:02;68.03;;;16.27;;
8474;SDS011;4274;52.012;8.448;2023-07-20T03:21:28;77.10;;;17.13;;
8474;SDS011;4274;52.012;8.448;2023-07-20T03:23:54;78.50;;;19.53;;
8474;SDS011;4274;52.012;8.448;2023-07-20T03:26:20;73.43;;;19.73;;
8474;SDS011;4274;52.012;8.448;2023-07-20T03:28:45;69.00;;;19.00;;
8474;SDS011;4274;52.012;8.448;2023-07-20T03:31:11;71.47;;;19.57;;
8474;SDS011;4274;52.012;8.448;2023-07-20T03:33:36;70.60;;;20.23;;
8474;SDS011;4274;52.012;8.448;2023-07-20T03:36:02;67.00;;;16.80;;
8474;SDS011;4274;52.012;8.448;2023-07-20T03:38:28;60.60;;;16.17;;
8474;SDS011;4274;52.012;8.448;2023-07-20T03:40:54;60.33;;;17.60;;
8474;SDS011;4274;52.012;8.448;2023-07-20T03:43:22;60.23;;;16.40;;
8474;SDS011;4274;52.012;8.448;2023-07-20T03:45:48;60.40;;;16.20;;
8474;SDS011;4274;52.012;8.448;2023-07-20T03:48:18;59.67;;;14.87;;
8474;SDS011;4274;52.012;8.448;2023-07-20T03:50:47;74.03;;;16.47;;
8474;SDS011;4274;52.012;8.448;2023-07-20T03:53:14;55.80;;;11.70;;
8474;SDS011;4274;52.012;8.448;2023-07-20T03:55:40;54.83;;;12.43;;
8474;SDS011;4274;52.012;8.448;2023-07-20T03:58:07;55.00;;;10.07;;
8474;SDS011;4274;52.012;8.448;2023-07-20T04:00:33;51.57;;;7.97;;
8474;SDS011;4274;52.012;8.448;2023-07-20T04:02:59;47.80;;;6.10;;
8474;SDS011;4274;52.012;8.448;2023-07-20T04:05:25;57.30;;;6.80;;
8474;SDS011;4274;52.012;8.448;2023-07-20T04:07:51;47.40;;;6.40;;
8474;SDS011;4274;52.012;8.448;2023-07-20T04:10:17;62.10;;;5.97;;
8474;SDS011;4274;52.012;8.448;2023-07-20T04:12:43;49.07;;;6.10;;
8474;SDS011;4274;52.012;8.448;2023-07-20T04:15:09;54.57;;;6.93;;
8474;SDS011;4274;52.012;8.448;2023-07-20T04:17:35;56.20;;;8.10;;
8474;SDS011;4274;52.012;8.448;2023-07-20T04:20:01;51.10;;;8.07;;
8474;SDS011;4274;52.012;8.448;2023-07-20T04:22:28;53.50;;;7.80;;
8474;SDS011;4274;52.012;8.448;2023-07-20T04:24:54;54.13;;;8.20;;
8474;SDS011;4274;52.012;8.448;2023-07-20T04:27:19;52.27;;;8.40;;
8474;SDS011;4274;52.012;8.448;2023-07-20T04:29:45;48.47;;;7.97;;
8474;SDS011;4274;52.012;8.448;2023-07-20T04:32:10;53.17;;;10.27;;
8474;SDS011;4274;52.012;8.448;2023-07-20T04:34:36;50.77;;;8.63;;
8474;SDS011;4274;52.012;8.448;2023-07-20T04:37:02;53.00;;;9.60;;
8474;SDS011;4274;52.012;8.448;2023-07-20T04:39:28;51.97;;;9.53;;
8474;SDS011;4274;52.012;8.448;2023-07-20T04:41:54;52.73;;;9.63;;
8474;SDS011;4274;52.012;8.448;2023-07-20T04:44:19;56.60;;;10.30;;
8474;SDS011;4274;52.012;8.448;2023-07-20T04:46:45;54.57;;;10.20;;
8474;SDS011;4274;52.012;8.448;2023-07-20T04:49:11;54.50;;;10.43;;
8474;SDS011;4274;52.012;8.448;2023-07-20T04:51:37;51.30;;;9.27;;
8474;SDS011;4274;52.012;8.448;2023-07-20T04:54:03;51.90;;;10.03;;
8474;SDS011;4274;52.012;8.448;2023-07-20T04:56:29;57.40;;;9.50;;
8474;SDS011;4274;52.012;8.448;2023-07-20T04:58:54;48.93;;;8.33;;
8474;SDS011;4274;52.012;8.448;2023-07-20T05:01:20;50.87;;;8.17;;
8474;SDS011;4274;52.012;8.448;2023-07-20T05:03:46;51.40;;;7.87;;
8474;SDS011;4274;52.012;8.448;2023-07-20T05:06:11;48.97;;;7.70;;
8474;SDS011;4274;52.012;8.448;2023-07-20T05:08:37;52.03;;;8.23;;
8474;SDS011;4274;52.012;8.448;2023-07-20T05:11:03;49.63;;;7.70;;
8474;SDS011;4274;52.012;8.448;2023-07-20T05:13:29;48.30;;;8.30;;
8474;SDS011;4274;52.012;8.448;2023-07-20T05:15:55;49.50;;;7.30;;
8474;SDS011;4274;52.012;8.448;2023-07-20T05:18:20;52.57;;;6.50;;
8474;SDS011;4274;52.012;8.448;2023-07-20T05:20:47;46.60;;;5.97;;
8474;SDS011;4274;52.012;8.448;2023-07-20T05:23:13;45.90;;;6.17;;
8474;SDS011;4274;52.012;8.448;2023-07-20T05:25:39;47.53;;;6.10;;
8474;SDS011;4274;52.012;8.448;2023-07-20T05:28:04;45.50;;;5.50;;
8474;SDS011;4274;52.012;8.448;2023-07-20T05:30:30;46.50;;;4.90;;
8474;SDS011;4274;52.012;8.448;2023-07-20T05:32:55;44.37;;;4.50;;
8474;SDS011;4274;52.012;8.448;2023-07-20T05:35:21;44.17;;;4.33;;
8474;SDS011;4274;52.012;8.448;2023-07-20T05:37:47;47.27;;;4.90;;
8474;SDS011;4274;52.012;8.448;2023-07-20T05:40:13;44.50;;;4.33;;
8474;SDS011;4274;52.012;8.448;2023-07-20T05:42:43;43.67;;;4.23;;
8474;SDS011;4274;52.012;8.448;2023-07-20T05:45:14;50.17;;;3.80;;
8474;SDS011;4274;52.012;8.448;2023-07-20T05:47:40;43.20;;;3.40;;
8474;SDS011;4274;52.012;8.448;2023-07-20T05:50:07;44.10;;;3.67;;
8474;SDS011;4274;52.012;8.448;2023-07-20T05:52:32;42.73;;;3.50;;
8474;SDS011;4274;52.012;8.448;2023-07-20T05:54:58;43.20;;;3.80;;
8474;SDS011;4274;52.012;8.448;2023-07-20T05:57:24;43.17;;;3.60;;
8474;SDS011;4274;52.012;8.448;2023-07-20T05:59:49;44.37;;;3.47;;
8474;SDS011;4274;52.012;8.448;2023-07-20T06:02:15;44.20;;;3.70;;
8474;SDS011;4274;52.012;8.448;2023-07-20T06:04:41;44.53;;;3.73;;
8474;SDS011;4274;52.012;8.448;2023-07-20T06:07:07;44.50;;;3.17;;
8474;SDS011;4274;52.012;8.448;2023-07-20T06:09:32;45.30;;;3.20;;
8474;SDS011;4274;52.012;8.448;2023-07-20T06:11:59;45.33;;;3.70;;
8474;SDS011;4274;52.012;8.448;2023-07-20T06:14:24;45.20;;;3.40;;
8474;SDS011;4274;52.012;8.448;2023-07-20T06:16:50;44.50;;;3.67;;
8474;SDS011;4274;52.012;8.448;2023-07-20T06:19:15;46.43;;;3.60;;
8474;SDS011;4274;52.012;8.448;2023-07-20T06:21:41;43.67;;;3.50;;
8474;SDS011;4274;52.012;8.448;2023-07-20T06:24:07;43.57;;;3.30;;
8474;SDS011;4274;52.012;8.448;2023-07-20T06:26:32;45.10;;;3.40;;
8474;SDS011;4274;52.012;8.448;2023-07-20T06:29:03;43.40;;;3.53;;
8474;SDS011;4274;52.012;8.448;2023-07-20T06:31:32;45.77;;;4.03;;
8474;SDS011;4274;52.012;8.448;2023-07-20T06:33:59;44.57;;;4.00;;
8474;SDS011;4274;52.012;8.448;2023-07-20T06:36:24;45.60;;;3.80;;
8474;SDS011;4274;52.012;8.448;2023-07-20T06:38:51;44.47;;;3.97;;
8474;SDS011;4274;52.012;8.448;2023-07-20T06:41:17;45.03;;;3.77;;
8474;SDS011;4274;52.012;8.448;2023-07-20T06:43:43;43.97;;;3.50;;
8474;SDS011;4274;52.012;8.448;2023-07-20T06:46:08;49.13;;;3.63;;
8474;SDS011;4274;52.012;8.448;2023-07-20T06:48:34;45.80;;;3.60;;
8474;SDS011;4274;52.012;8.448;2023-07-20T06:50:59;44.07;;;4.00;;
8474;SDS011;4274;52.012;8.448;2023-07-20T06:53:26;47.00;;;3.40;;
8474;SDS011;4274;52.012;8.448;2023-07-20T06:55:52;47.23;;;3.80;;
8474;SDS011;4274;52.012;8.448;2023-07-20T06:58:17;50.67;;;5.80;;
8474;SDS011;4274;52.012;8.448;2023-07-20T07:00:44;42.70;;;2.60;;
8474;SDS011;4274;52.012;8.448;2023-07-20T07:03:09;43.97;;;2.77;;
8474;SDS011;4274;52.012;8.448;2023-07-20T07:05:36;43.90;;;3.23;;
8474;SDS011;4274;52.012;8.448;2023-07-20T07:08:02;44.23;;;2.90;;
8474;SDS011;4274;52.012;8.448;2023-07-20T07:10:29;42.70;;;2.73;;
8474;SDS011;4274;52.012;8.448;2023-07-20T07:12:55;43.93;;;2.70;;
8474;SDS011;4274;52.012;8.448;2023-07-20T07:15:21;44.67;;;2.70;;
8474;SDS011;4274;52.012;8.448;2023-07-20T07:17:46;46.00;;;3.10;;
8474;SDS011;4274;52.012;8.448;2023-07-20T07:20:12;44.23;;;3.17;;
8474;SDS011;4274;52.012;8.448;2023-07-20T07:22:37;43.63;;;3.17;;
8474;SDS011;4274;52.012;8.448;2023-07-20T07:25:03;43.93;;;2.60;;
8474;SDS011;4274;52.012;8.448;2023-07-20T07:27:29;43.40;;;2.60;;
8474;SDS011;4274;52.012;8.448;2023-07-20T07:29:54;42.67;;;2.30;;
8474;SDS011;4274;52.012;8.448;2023-07-20T07:32:20;42.90;;;2.20;;
8474;SDS011;4274;52.012;8.448;2023-07-20T07:34:46;44.00;;;2.00;;
8474;SDS011;4274;52.012;8.448;2023-07-20T07:37:12;45.30;;;2.23;;
8474;SDS011;4274;52.012;8.448;2023-07-20T07:39:38;42.53;;;2.20;;
8474;SDS011;4274;52.012;8.448;2023-07-20T07:42:04;42.43;;;1.90;;
8474;SDS011;4274;52.012;8.448;2023-07-20T07:44:30;45.70;;;1.60;;
8474;SDS011;4274;52.012;8.448;2023-07-20T07:46:56;42.47;;;2.10;;
8474;SDS011;4274;52.012;8.448;2023-07-20T07:49:22;42.70;;;2.20;;
8474;SDS011;4274;52.012;8.448;2023-07-20T07:51:47;42.30;;;1.93;;
8474;SDS011;4274;52.012;8.448;2023-07-20T07:54:13;47.77;;;2.10;;
8474;SDS011;4274;52.012;8.448;2023-07-20T07:56:39;43.20;;;1.70;;
8474;SDS011;4274;52.012;8.448;2023-07-20T07:59:05;44.27;;;1.60;;
8474;SDS011;4274;52.012;8.448;2023-07-20T08:01:31;42.90;;;1.90;;
8474;SDS011;4274;52.012;8.448;2023-07-20T08:03:57;43.17;;;2.00;;
8474;SDS011;4274;52.012;8.448;2023-07-20T08:06:23;43.10;;;2.00;;
8474;SDS011;4274;52.012;8.448;2023-07-20T08:08:49;52.27;;;2.70;;
8474;SDS011;4274;52.012;8.448;2023-07-20T08:11:15;44.80;;;2.43;;
8474;SDS011;4274;52.012;8.448;2023-07-20T08:13:41;43.60;;;2.03;;
8474;SDS011;4274;52.012;8.448;2023-07-20T08:16:07;43.27;;;1.90;;
8474;SDS011;4274;52.012;8.448;2023-07-20T08:18:32;45.30;;;2.30;;
8474;SDS011;4274;52.012;8.448;2023-07-20T08:20:58;43.20;;;2.10;;
8474;SDS011;4274;52.012;8.448;2023-07-20T08:23:23;43.57;;;1.90;;
8474;SDS011;4274;52.012;8.448;2023-07-20T08:25:49;42.97;;;1.70;;
8474;SDS011;4274;52.012;8.448;2023-07-20T08:28:15;43.50;;;2.00;;
8474;SDS011;4274;52.012;8.448;2023-07-20T08:30:42;44.93;;;1.80;;
8474;SDS011;4274;52.012;8.448;2023-07-20T08:33:09;43.90;;;1.83;;
8474;SDS011;4274;52.012;8.448;2023-07-20T08:35:36;43.20;;;1.90;;
8474;SDS011;4274;52.012;8.448;2023-07-20T08:38:02;43.17;;;1.73;;
8474;SDS011;4274;52.012;8.448;2023-07-20T08:40:29;70.93;;;2.23;;
8474;SDS011;4274;52.012;8.448;2023-07-20T08:42:59;43.67;;;1.90;;
8474;SDS011;4274;52.012;8.448;2023-07-20T08:45:27;43.97;;;1.90;;
8474;SDS011;4274;52.012;8.448;2023-07-20T08:47:58;43.70;;;1.90;;
8474;SDS011;4274;52.012;8.448;2023-07-20T08:50:25;44.77;;;2.03;;
8474;SDS011;4274;52.012;8.448;2023-07-20T08:52:53;43.37;;;1.80;;
8474;SDS011;4274;52.012;8.448;2023-07-20T08:55:21;55.43;;;3.40;;
8474;SDS011;4274;52.012;8.448;2023-07-20T08:57:49;46.30;;;2.07;;
8474;SDS011;4274;52.012;8.448;2023-07-20T09:00:17;46.10;;;1.87;;
8474;SDS011;4274;52.012;8.448;2023-07-20T09:02:45;43.77;;;1.80;;
8474;SDS011;4274;52.012;8.448;2023-07-20T09:05:12;44.40;;;1.80;;
8474;SDS011;4274;52.012;8.448;2023-07-20T09:07:39;44.60;;;1.90;;
8474;SDS011;4274;52.012;8.448;2023-07-20T09:10:05;43.70;;;1.90;;
8474;SDS011;4274;52.012;8.448;2023-07-20T09:12:35;47.30;;;1.60;;
8474;SDS011;4274;52.012;8.448;2023-07-20T09:15:03;45.77;;;1.97;;
8474;SDS011;4274;52.012;8.448;2023-07-20T09:17:29;43.70;;;1.70;;
8474;SDS011;4274;52.012;8.448;2023-07-20T09:19:55;44.10;;;1.80;;
8474;SDS011;4274;52.012;8.448;2023-07-20T09:22:21;43.40;;;1.60;;
8474;SDS011;4274;52.012;8.448;2023-07-20T09:24:46;44.27;;;1.70;;
8474;SDS011;4274;52.012;8.448;2023-07-20T09:27:12;44.67;;;1.70;;
8474;SDS011;4274;52.012;8.448;2023-07-20T09:29:50;43.77;;;1.60;;
8474;SDS011;4274;52.012;8.448;2023-07-20T09:32:20;43.83;;;1.70;;
8474;SDS011;4274;52.012;8.448;2023-07-20T09:34:46;44.27;;;1.80;;
8474;SDS011;4274;52.012;8.448;2023-07-20T09:37:12;44.50;;;1.87;;
8474;SDS011;4274;52.012;8.448;2023-07-20T09:39:42;44.10;;;1.93;;
8474;SDS011;4274;52.012;8.448;2023-07-20T09:42:10;45.10;;;1.83;;
8474;SDS011;4274;52.012;8.448;2023-07-20T09:44:39;45.60;;;2.00;;
8474;SDS011;4274;52.012;8.448;2023-07-20T09:47:05;44.13;;;1.70;;
8474;SDS011;4274;52.012;8.448;2023-07-20T09:49:31;50.90;;;1.70;;
8474;SDS011;4274;52.012;8.448;2023-07-20T09:51:57;44.43;;;1.90;;
8474;SDS011;4274;52.012;8.448;2023-07-20T09:54:25;46.57;;;1.80;;
8474;SDS011;4274;52.012;8.448;2023-07-20T09:56:53;44.13;;;1.70;;
8474;SDS011;4274;52.012;8.448;2023-07-20T09:59:19;44.17;;;1.70;;
8474;SDS011;4274;52.012;8.448;2023-07-20T10:01:45;44.67;;;1.60;;
8474;SDS011;4274;52.012;8.448;2023-07-20T10:04:12;45.00;;;1.73;;
8474;SDS011;4274;52.012;8.448;2023-07-20T10:06:42;44.07;;;1.60;;
8474;SDS011;4274;52.012;8.448;2023-07-20T10:09:12;44.60;;;1.77;;
8474;SDS011;4274;52.012;8.448;2023-07-20T10:11:40;44.20;;;1.80;;
8474;SDS011;4274;52.012;8.448;2023-07-20T10:14:16;44.80;;;1.70;;
8474;SDS011;4274;52.012;8.448;2023-07-20T10:16:46;44.77;;;1.63;;
8474;SDS011;4274;52.012;8.448;2023-07-20T10:19:24;44.77;;;1.70;;
8474;SDS011;4274;52.012;8.448;2023-07-20T10:22:10;44.47;;;1.90;;
8474;SDS011;4274;52.012;8.448;2023-07-20T10:24:39;44.30;;;1.60;;
8474;SDS011;4274;52.012;8.448;2023-07-20T10:27:06;44.20;;;1.70;;
8474;SDS011;4274;52.012;8.448;2023-07-20T10:29:32;44.37;;;1.77;;
8474;SDS011;4274;52.012;8.448;2023-07-20T10:31:58;44.30;;;1.77;;
8474;SDS011;4274;52.012;8.448;2023-07-20T10:34:24;45.87;;;2.07;;
8474;SDS011;4274;52.012;8.448;2023-07-20T10:36:50;44.93;;;1.80;;
8474;SDS011;4274;52.012;8.448;2023-07-20T10:39:32;46.70;;;2.10;;
8474;SDS011;4274;52.012;8.448;2023-07-20T10:42:02;44.97;;;2.27;;
8474;SDS011;4274;52.012;8.448;2023-07-20T10:44:37;44.73;;;1.77;;
8474;SDS011;4274;52.012;8.448;2023-07-20T10:47:11;44.57;;;1.90;;
8474;SDS011;4274;52.012;8.448;2023-07-20T10:52:37;50.50;;;1.83;;
8474;SDS011;4274;52.012;8.448;2023-07-20T10:55:14;45.07;;;1.90;;
8474;SDS011;4274;52.012;8.448;2023-07-20T10:57:44;44.70;;;2.20;;
8474;SDS011;4274;52.012;8.448;2023-07-20T11:00:33;44.87;;;2.10;;
8474;SDS011;4274;52.012;8.448;2023-07-20T11:02:58;46.73;;;2.10;;
8474;SDS011;4274;52.012;8.448;2023-07-20T11:05:39;46.33;;;2.10;;
8474;SDS011;4274;52.012;8.448;2023-07-20T11:08:11;44.70;;;1.90;;
8474;SDS011;4274;52.012;8.448;2023-07-20T11:10:37;44.50;;;2.20;;
8474;SDS011;4274;52.012;8.448;2023-07-20T11:13:18;46.37;;;2.17;;
8474;SDS011;4274;52.012;8.448;2023-07-20T11:18:27;45.20;;;2.20;;
8474;SDS011;4274;52.012;8.448;2023-07-20T11:20:53;44.83;;;1.97;;
8474;SDS011;4274;52.012;8.448;2023-07-20T11:23:19;44.97;;;1.70;;
8474;SDS011;4274;52.012;8.448;2023-07-20T11:25:46;46.37;;;1.97;;
8474;SDS011;4274;52.012;8.448;2023-07-20T11:28:11;46.50;;;2.00;;
8474;SDS011;4274;52.012;8.448;2023-07-20T11:30:37;45.97;;;1.60;;
8474;SDS011;4274;52.012;8.448;2023-07-20T11:33:08;47.17;;;1.70;;
8474;SDS011;4274;52.012;8.448;2023-07-20T11:35:43;44.47;;;1.80;;
8474;SDS011;4274;52.012;8.448;2023-07-20T11:38:12;46.53;;;2.03;;
8474;SDS011;4274;52.012;8.448;2023-07-20T11:40:42;45.80;;;2.30;;
8474;SDS011;4274;52.012;8.448;2023-07-20T11:43:08;45.50;;;1.83;;
8474;SDS011;4274;52.012;8.448;2023-07-20T11:45:37;44.87;;;1.80;;
8474;SDS011;4274;52.012;8.448;2023-07-20T11:48:03;45.10;;;1.87;;
8474;SDS011;4274;52.012;8.448;2023-07-20T11:50:28;46.30;;;2.10;;
8474;SDS011;4274;52.012;8.448;2023-07-20T11:52:55;46.43;;;1.70;;
8474;SDS011;4274;52.012;8.448;2023-07-20T11:55:21;51.50;;;2.10;;
8474;SDS011;4274;52.012;8.448;2023-07-20T11:58:02;45.77;;;1.90;;
8474;SDS011;4274;52.012;8.448;2023-07-20T12:00:28;44.67;;;1.63;;
8474;SDS011;4274;52.012;8.448;2023-07-20T12:02:54;45.30;;;1.80;;
8474;SDS011;4274;52.012;8.448;2023-07-20T12:05:22;45.30;;;1.70;;
8474;SDS011;4274;52.012;8.448;2023-07-20T12:07:48;45.00;;;1.47;;
8474;SDS011;4274;52.012;8.448;2023-07-20T12:10:17;46.00;;;1.60;;
8474;SDS011;4274;52.012;8.448;2023-07-20T12:12:53;45.10;;;1.77;;
8474;SDS011;4274;52.012;8.448;2023-07-20T12:17:55;45.07;;;1.70;;
8474;SDS011;4274;52.012;8.448;2023-07-20T12:23:10;47.03;;;1.97;;
8474;SDS011;4274;52.012;8.448;2023-07-20T12:28:17;46.07;;;1.50;;
8474;SDS011;4274;52.012;8.448;2023-07-20T12:30:45;47.63;;;1.70;;
8474;SDS011;4274;52.012;8.448;2023-07-20T12:33:12;44.87;;;1.50;;
8474;SDS011;4274;52.012;8.448;2023-07-20T12:35:40;44.90;;;1.50;;
8474;SDS011;4274;52.012;8.448;2023-07-20T12:38:06;46.90;;;1.57;;
8474;SDS011;4274;52.012;8.448;2023-07-20T12:40:31;45.70;;;1.50;;
8474;SDS011;4274;52.012;8.448;2023-07-20T12:42:59;45.57;;;1.60;;
8474;SDS011;4274;52.012;8.448;2023-07-20T12:45:24;45.47;;;1.40;;
8474;SDS011;4274;52.012;8.448;2023-07-20T12:47:50;56.50;;;1.70;;
8474;SDS011;4274;52.012;8.448;2023-07-20T12:50:15;50.13;;;2.50;;
8474;SDS011;4274;52.012;8.448;2023-07-20T12:52:41;49.60;;;1.70;;
8474;SDS011;4274;52.012;8.448;2023-07-20T12:55:07;45.30;;;1.37;;
8474;SDS011;4274;52.012;8.448;2023-07-20T12:57:34;47.00;;;1.60;;
8474;SDS011;4274;52.012;8.448;2023-07-20T13:00:00;45.67;;;1.40;;
8474;SDS011;4274;52.012;8.448;2023-07-20T13:02:29;45.40;;;1.40;;
8474;SDS011;4274;52.012;8.448;2023-07-20T13:04:57;48.30;;;1.90;;
8474;SDS011;4274;52.012;8.448;2023-07-20T13:07:33;47.00;;;1.40;;
8474;SDS011;4274;52.012;8.448;2023-07-20T13:10:00;46.90;;;1.43;;
8474;SDS011;4274;52.012;8.448;2023-07-20T13:12:29;45.87;;;1.30;;
8474;SDS011;4274;52.012;8.448;2023-07-20T13:14:56;45.63;;;1.30;;
8474;SDS011;4274;52.012;8.448;2023-07-20T13:17:22;45.47;;;1.40;;
8474;SDS011;4274;52.012;8.448;2023-07-20T13:19:48;49.13;;;1.50;;
8474;SDS011;4274;52.012;8.448;2023-07-20T13:22:13;46.27;;;1.60;;
8474;SDS011;4274;52.012;8.448;2023-07-20T13:24:39;48.73;;;1.80;;
8474;SDS011;4274;52.012;8.448;2023-07-20T13:27:05;47.23;;;2.00;;
8474;SDS011;4274;52.012;8.448;2023-07-20T13:29:31;45.57;;;1.60;;
8474;SDS011;4274;52.012;8.448;2023-07-20T13:31:57;46.37;;;1.93;;
8474;SDS011;4274;52.012;8.448;2023-07-20T13:34:25;45.93;;;1.60;;
8474;SDS011;4274;52.012;8.448;2023-07-20T13:36:51;47.63;;;1.60;;
8474;SDS011;4274;52.012;8.448;2023-07-20T13:39:16;46.10;;;1.50;;
8474;SDS011;4274;52.012;8.448;2023-07-20T13:41:42;45.93;;;1.50;;
8474;SDS011;4274;52.012;8.448;2023-07-20T13:44:08;49.17;;;1.70;;
8474;SDS011;4274;52.012;8.448;2023-07-20T13:46:34;58.93;;;1.93;;
8474;SDS011;4274;52.012;8.448;2023-07-20T13:48:59;47.27;;;1.77;;
8474;SDS011;4274;52.012;8.448;2023-07-20T13:51:25;45.37;;;1.60;;
8474;SDS011;4274;52.012;8.448;2023-07-20T13:53:51;45.87;;;1.60;;
8474;SDS011;4274;52.012;8.448;2023-07-20T13:56:17;47.20;;;1.50;;
8474;SDS011;4274;52.012;8.448;2023-07-20T13:58:42;45.47;;;1.50;;
8474;SDS011;4274;52.012;8.448;2023-07-20T14:01:08;45.17;;;1.60;;
8474;SDS011;4274;52.012;8.448;2023-07-20T14:03:33;45.63;;;1.53;;
8474;SDS011;4274;52.012;8.448;2023-07-20T14:05:59;45.47;;;1.60;;
8474;SDS011;4274;52.012;8.448;2023-07-20T14:08:24;44.80;;;1.60;;
8474;SDS011;4274;52.012;8.448;2023-07-20T14:10:50;46.80;;;1.90;;
8474;SDS011;4274;52.012;8.448;2023-07-20T14:13:15;45.80;;;1.60;;
8474;SDS011;4274;52.012;8.448;2023-07-20T14:15:41;45.60;;;1.50;;
8474;SDS011;4274;52.012;8.448;2023-07-20T14:18:07;45.50;;;1.60;;
8474;SDS011;4274;52.012;8.448;2023-07-20T14:20:32;46.10;;;1.70;;
8474;SDS011;4274;52.012;8.448;2023-07-20T14:22:58;45.40;;;1.60;;
8474;SDS011;4274;52.012;8.448;2023-07-20T14:25:23;45.87;;;1.70;;
8474;SDS011;4274;52.012;8.448;2023-07-20T14:27:49;45.37;;;1.83;;
8474;SDS011;4274;52.012;8.448;2023-07-20T14:30:14;45.77;;;2.00;;
8474;SDS011;4274;52.012;8.448;2023-07-20T14:32:40;46.67;;;1.70;;
8474;SDS011;4274;52.012;8.448;2023-07-20T14:35:06;45.20;;;1.67;;
8474;SDS011;4274;52.012;8.448;2023-07-20T14:37:32;46.00;;;1.90;;
8474;SDS011;4274;52.012;8.448;2023-07-20T14:39:58;47.87;;;1.90;;
8474;SDS011;4274;52.012;8.448;2023-07-20T14:42:24;46.80;;;2.00;;
8474;SDS011;4274;52.012;8.448;2023-07-20T14:44:50;45.43;;;1.73;;
8474;SDS011;4274;52.012;8.448;2023-07-20T14:47:15;46.30;;;1.93;;
8474;SDS011;4274;52.012;8.448;2023-07-20T14:49:41;45.70;;;1.83;;
8474;SDS011;4274;52.012;8.448;2023-07-20T14:52:06;46.57;;;1.97;;
8474;SDS011;4274;52.012;8.448;2023-07-20T14:54:32;45.97;;;1.83;;
8474;SDS011;4274;52.012;8.448;2023-07-20T14:56:57;45.73;;;1.77;;
8474;SDS011;4274;52.012;8.448;2023-07-20T14:59:23;45.40;;;1.90;;
8474;SDS011;4274;52.012;8.448;2023-07-20T15:01:48;70.63;;;2.40;;
8474;SDS011;4274;52.012;8.448;2023-07-20T15:04:14;47.47;;;1.90;;
8474;SDS011;4274;52.012;8.448;2023-07-20T15:06:40;45.10;;;1.70;;
8474;SDS011;4274;52.012;8.448;2023-07-20T15:09:06;50.10;;;2.13;;
8474;SDS011;4274;52.012;8.448;2023-07-20T15:11:33;45.27;;;1.87;;
8474;SDS011;4274;52.012;8.448;2023-07-20T15:13:59;45.70;;;1.80;;
8474;SDS011;4274;52.012;8.448;2023-07-20T15:16:25;45.47;;;1.83;;
8474;SDS011;4274;52.012;8.448;2023-07-20T15:18:50;47.30;;;1.80;;
8474;SDS011;4274;52.012;8.448;2023-07-20T15:21:16;45.07;;;1.80;;
8474;SDS011;4274;52.012;8.448;2023-07-20T15:23:42;48.77;;;1.87;;
8474;SDS011;4274;52.012;8.448;2023-07-20T15:26:08;45.57;;;1.80;;